DAL864 MGGT-MNMG
Flight info
| Callsign | DAL864 |
|---|---|
| Flight time | 0h 52m |
| Altitude | 35000 |
| Route | VILDA2 KAPAN UG436 CAT UA317 URPOS |
| Aircraft | A320/M-SDE3FGHIRWY/LB1 |
Departure
| Time | 2026-05-07 14:42 |
|---|---|
| Airport | La Aurora International Airport (MGGT) |
Arrival
| Time | 2026-05-07 15:35 |
|---|---|
| Airport | Augusto C. Sandino (Managua) International Airport (MNMG) |
| Time | Latitude | Longitude | Altitude | Speed | Heading |
|---|---|---|---|---|---|
| 2026-05-07 14:12 | 14.59099 | -90.52925 | 4906 ft | 0 kts | 108° |
| 2026-05-07 14:32 | 14.59101 | -90.52929 | 4906 ft | 3 kts | 107° |
| 2026-05-07 14:32 | 14.59106 | -90.52956 | 4904 ft | 4 kts | 89° |
| 2026-05-07 14:33 | 14.59101 | -90.52980 | 4905 ft | 4 kts | 41° |
| 2026-05-07 14:33 | 14.59092 | -90.52986 | 4899 ft | 0 kts | 17° |
| 2026-05-07 14:36 | 14.59097 | -90.52985 | 4898 ft | 3 kts | 17° |
| 2026-05-07 14:36 | 14.59126 | -90.52976 | 4902 ft | 4 kts | 17° |
| 2026-05-07 14:36 | 14.59153 | -90.52967 | 4901 ft | 5 kts | 18° |
| 2026-05-07 14:37 | 14.59198 | -90.52952 | 4902 ft | 9 kts | 20° |
| 2026-05-07 14:37 | 14.59220 | -90.52794 | 4914 ft | 17 kts | 108° |
| 2026-05-07 14:37 | 14.59151 | -90.52707 | 4909 ft | 17 kts | 180° |
| 2026-05-07 14:38 | 14.59023 | -90.52744 | 4901 ft | 21 kts | 197° |
| 2026-05-07 14:38 | 14.58872 | -90.52781 | 4898 ft | 23 kts | 174° |
| 2026-05-07 14:38 | 14.58789 | -90.52690 | 4899 ft | 16 kts | 76° |
| 2026-05-07 14:38 | 14.58880 | -90.52641 | 4897 ft | 15 kts | 17° |
| 2026-05-07 14:39 | 14.58983 | -90.52607 | 4899 ft | 16 kts | 18° |
| 2026-05-07 14:39 | 14.59093 | -90.52572 | 4900 ft | 17 kts | 17° |
| 2026-05-07 14:39 | 14.59210 | -90.52534 | 4913 ft | 18 kts | 17° |
| 2026-05-07 14:39 | 14.59337 | -90.52494 | 4919 ft | 19 kts | 17° |
| 2026-05-07 14:40 | 14.59468 | -90.52451 | 4920 ft | 20 kts | 17° |
| 2026-05-07 14:40 | 14.59571 | -90.52412 | 4922 ft | 4 kts | 33° |
| 2026-05-07 14:40 | 14.59587 | -90.52388 | 4923 ft | 5 kts | 70° |
| 2026-05-07 14:40 | 14.59568 | -90.52349 | 4923 ft | 8 kts | 168° |
| 2026-05-07 14:41 | 14.59534 | -90.52360 | 4924 ft | 0 kts | 197° |
| 2026-05-07 14:41 | 14.59374 | -90.52411 | 4921 ft | 62 kts | 197° |
| 2026-05-07 14:41 | 14.58738 | -90.52612 | 4891 ft | 127 kts | 197° |
| 2026-05-07 14:41 | 14.57721 | -90.52938 | 4944 ft | 172 kts | 197° |
| 2026-05-07 14:42 | 14.56533 | -90.53314 | 5414 ft | 184 kts | 196° |
| 2026-05-07 14:42 | 14.55250 | -90.53584 | 5949 ft | 193 kts | 178° |
| 2026-05-07 14:42 | 14.53909 | -90.53333 | 6480 ft | 199 kts | 163° |
| 2026-05-07 14:42 | 14.52578 | -90.52921 | 6918 ft | 201 kts | 163° |
| 2026-05-07 14:43 | 14.51219 | -90.52534 | 7306 ft | 204 kts | 165° |
| 2026-05-07 14:43 | 14.49828 | -90.52197 | 7687 ft | 207 kts | 167° |
| 2026-05-07 14:43 | 14.48406 | -90.51921 | 8085 ft | 209 kts | 169° |
| 2026-05-07 14:43 | 14.46963 | -90.51713 | 8501 ft | 210 kts | 172° |
| 2026-05-07 14:44 | 14.45507 | -90.51568 | 8933 ft | 210 kts | 173° |
| 2026-05-07 14:44 | 14.44046 | -90.51488 | 9340 ft | 210 kts | 176° |
| 2026-05-07 14:44 | 14.42588 | -90.51370 | 9680 ft | 211 kts | 169° |
| 2026-05-07 14:44 | 14.41127 | -90.51045 | 9935 ft | 220 kts | 165° |
| 2026-05-07 14:45 | 14.39568 | -90.50719 | 10196 ft | 237 kts | 168° |
| 2026-05-07 14:45 | 14.37877 | -90.50407 | 10401 ft | 259 kts | 166° |
| 2026-05-07 14:45 | 14.36043 | -90.49974 | 10624 ft | 282 kts | 165° |
| 2026-05-07 14:45 | 14.34057 | -90.49488 | 10822 ft | 305 kts | 165° |
| 2026-05-07 14:46 | 14.31901 | -90.48993 | 10997 ft | 329 kts | 166° |
| 2026-05-07 14:46 | 14.29605 | -90.48513 | 11394 ft | 342 kts | 167° |
| 2026-05-07 14:46 | 14.27246 | -90.48062 | 12055 ft | 347 kts | 168° |
| 2026-05-07 14:46 | 14.24856 | -90.47632 | 12727 ft | 350 kts | 168° |
| 2026-05-07 14:47 | 14.22440 | -90.47211 | 13401 ft | 354 kts | 168° |
| 2026-05-07 14:47 | 14.20002 | -90.46788 | 14038 ft | 357 kts | 168° |
| 2026-05-07 14:47 | 14.17548 | -90.46360 | 14638 ft | 359 kts | 168° |
| 2026-05-07 14:47 | 14.15088 | -90.45850 | 15233 ft | 360 kts | 159° |
| 2026-05-07 14:48 | 14.12929 | -90.44601 | 15801 ft | 358 kts | 136° |
| 2026-05-07 14:48 | 14.11453 | -90.42564 | 16396 ft | 357 kts | 113° |
| 2026-05-07 14:48 | 14.10906 | -90.40077 | 16969 ft | 360 kts | 90° |
| 2026-05-07 14:48 | 14.11208 | -90.37506 | 17556 ft | 363 kts | 81° |
| 2026-05-07 14:49 | 14.11646 | -90.34935 | 18111 ft | 366 kts | 81° |
| 2026-05-07 14:49 | 14.12101 | -90.32341 | 18615 ft | 369 kts | 81° |
| 2026-05-07 14:49 | 14.12560 | -90.29725 | 19114 ft | 372 kts | 81° |
| 2026-05-07 14:49 | 14.13015 | -90.27095 | 19606 ft | 374 kts | 81° |
| 2026-05-07 14:50 | 14.13469 | -90.24444 | 20106 ft | 377 kts | 81° |
| 2026-05-07 14:50 | 14.13921 | -90.21776 | 20621 ft | 379 kts | 81° |
| 2026-05-07 14:50 | 14.14373 | -90.19098 | 21130 ft | 381 kts | 82° |
| 2026-05-07 14:50 | 14.14828 | -90.16402 | 21631 ft | 383 kts | 81° |
| 2026-05-07 14:51 | 14.15283 | -90.13686 | 22143 ft | 386 kts | 82° |
| 2026-05-07 14:51 | 14.15741 | -90.10958 | 22640 ft | 388 kts | 82° |
| 2026-05-07 14:51 | 14.16200 | -90.08210 | 23124 ft | 390 kts | 83° |
| 2026-05-07 14:51 | 14.16359 | -90.05424 | 23571 ft | 391 kts | 94° |
| 2026-05-07 14:52 | 14.15956 | -90.02653 | 23951 ft | 393 kts | 105° |
| 2026-05-07 14:52 | 14.15005 | -90.00004 | 24311 ft | 396 kts | 116° |
| 2026-05-07 14:52 | 14.13541 | -89.97589 | 24663 ft | 400 kts | 126° |
| 2026-05-07 14:52 | 14.11824 | -89.95320 | 25018 ft | 403 kts | 126° |
| 2026-05-07 14:53 | 14.10092 | -89.93040 | 25369 ft | 405 kts | 126° |
| 2026-05-07 14:53 | 14.08351 | -89.90751 | 25713 ft | 407 kts | 127° |
| 2026-05-07 14:53 | 14.06598 | -89.88446 | 26010 ft | 410 kts | 127° |
| 2026-05-07 14:53 | 14.04836 | -89.86127 | 26349 ft | 412 kts | 127° |
| 2026-05-07 14:54 | 14.03045 | -89.83810 | 26677 ft | 415 kts | 127° |
| 2026-05-07 14:54 | 14.01228 | -89.81493 | 26996 ft | 417 kts | 128° |
| 2026-05-07 14:54 | 13.99390 | -89.79177 | 27310 ft | 419 kts | 128° |
| 2026-05-07 14:54 | 13.97536 | -89.76850 | 27624 ft | 421 kts | 128° |
| 2026-05-07 14:55 | 13.95676 | -89.74510 | 27936 ft | 423 kts | 128° |
| 2026-05-07 14:55 | 13.93811 | -89.72150 | 28234 ft | 425 kts | 128° |
| 2026-05-07 14:55 | 13.91943 | -89.69775 | 28514 ft | 427 kts | 128° |
| 2026-05-07 14:55 | 13.90071 | -89.67386 | 28839 ft | 429 kts | 128° |
| 2026-05-07 14:56 | 13.88189 | -89.64985 | 29135 ft | 432 kts | 128° |
| 2026-05-07 14:56 | 13.86319 | -89.62607 | 29426 ft | 434 kts | 128° |
| 2026-05-07 14:56 | 13.84411 | -89.60191 | 29690 ft | 437 kts | 128° |
| 2026-05-07 14:56 | 13.82485 | -89.57755 | 29941 ft | 440 kts | 128° |
| 2026-05-07 14:57 | 13.80553 | -89.55304 | 30192 ft | 442 kts | 128° |
| 2026-05-07 14:57 | 13.78617 | -89.52841 | 30414 ft | 444 kts | 128° |
| 2026-05-07 14:57 | 13.76669 | -89.50362 | 30587 ft | 447 kts | 128° |
| 2026-05-07 14:57 | 13.74706 | -89.47872 | 30797 ft | 449 kts | 128° |
| 2026-05-07 14:58 | 13.72732 | -89.45370 | 31004 ft | 451 kts | 128° |
| 2026-05-07 14:58 | 13.70751 | -89.42859 | 31204 ft | 453 kts | 128° |
| 2026-05-07 14:58 | 13.68761 | -89.40337 | 31393 ft | 455 kts | 128° |
| 2026-05-07 14:58 | 13.66763 | -89.37804 | 31608 ft | 456 kts | 128° |
| 2026-05-07 14:59 | 13.64761 | -89.35270 | 31890 ft | 456 kts | 128° |
| 2026-05-07 14:59 | 13.62760 | -89.32741 | 32160 ft | 456 kts | 128° |
| 2026-05-07 14:59 | 13.60757 | -89.30210 | 32441 ft | 456 kts | 128° |
| 2026-05-07 14:59 | 13.58754 | -89.27675 | 32701 ft | 457 kts | 128° |
| 2026-05-07 15:00 | 13.56747 | -89.25137 | 32962 ft | 457 kts | 128° |
| 2026-05-07 15:00 | 13.54741 | -89.22602 | 33247 ft | 457 kts | 128° |
| 2026-05-07 15:00 | 13.52736 | -89.20070 | 33575 ft | 456 kts | 128° |
| 2026-05-07 15:00 | 13.50738 | -89.17545 | 33872 ft | 456 kts | 128° |
| 2026-05-07 15:01 | 13.48737 | -89.15021 | 34109 ft | 456 kts | 128° |
| 2026-05-07 15:01 | 13.46721 | -89.12478 | 34229 ft | 460 kts | 128° |
| 2026-05-07 15:01 | 13.44704 | -89.09927 | 34414 ft | 461 kts | 127° |
| 2026-05-07 15:01 | 13.42922 | -89.07195 | 34618 ft | 460 kts | 117° |
| 2026-05-07 15:02 | 13.41548 | -89.04235 | 34788 ft | 460 kts | 113° |
| 2026-05-07 15:02 | 13.40250 | -89.01230 | 34917 ft | 460 kts | 113° |
| 2026-05-07 15:02 | 13.37658 | -88.95288 | 34948 ft | 453 kts | 113° |
| 2026-05-07 15:03 | 13.35075 | -88.89402 | 34981 ft | 452 kts | 113° |
| 2026-05-07 15:03 | 13.32503 | -88.83524 | 34942 ft | 450 kts | 113° |
| 2026-05-07 15:04 | 13.29945 | -88.77661 | 34950 ft | 448 kts | 113° |
| 2026-05-07 15:04 | 13.27393 | -88.71818 | 34952 ft | 448 kts | 113° |
| 2026-05-07 15:05 | 13.24837 | -88.65979 | 34957 ft | 448 kts | 113° |
| 2026-05-07 15:05 | 13.22281 | -88.60141 | 34976 ft | 449 kts | 113° |
| 2026-05-07 15:06 | 13.19721 | -88.54306 | 34959 ft | 449 kts | 113° |
| 2026-05-07 15:06 | 13.17154 | -88.48467 | 34959 ft | 449 kts | 113° |
| 2026-05-07 15:07 | 13.14591 | -88.42639 | 34967 ft | 448 kts | 113° |
| 2026-05-07 15:07 | 13.12034 | -88.36814 | 34966 ft | 448 kts | 113° |
| 2026-05-07 15:08 | 13.09473 | -88.30982 | 34977 ft | 448 kts | 113° |
| 2026-05-07 15:08 | 13.06900 | -88.25155 | 34975 ft | 448 kts | 113° |
| 2026-05-07 15:09 | 13.04332 | -88.19322 | 34974 ft | 449 kts | 113° |
| 2026-05-07 15:09 | 13.01759 | -88.13488 | 34974 ft | 449 kts | 113° |
| 2026-05-07 15:10 | 12.99187 | -88.07663 | 34976 ft | 448 kts | 113° |
| 2026-05-07 15:10 | 12.96614 | -88.01839 | 34983 ft | 447 kts | 113° |
| 2026-05-07 15:11 | 12.94069 | -87.96072 | 34986 ft | 447 kts | 113° |
| 2026-05-07 15:11 | 12.91507 | -87.90273 | 34946 ft | 447 kts | 113° |
| 2026-05-07 15:12 | 12.90219 | -87.87365 | 34365 ft | 448 kts | 113° |
| 2026-05-07 15:12 | 12.88931 | -87.84462 | 33753 ft | 446 kts | 113° |
| 2026-05-07 15:12 | 12.87651 | -87.81586 | 33156 ft | 442 kts | 114° |
| 2026-05-07 15:12 | 12.86378 | -87.78736 | 32594 ft | 437 kts | 114° |
| 2026-05-07 15:13 | 12.85116 | -87.75917 | 32020 ft | 434 kts | 114° |
| 2026-05-07 15:13 | 12.83867 | -87.73118 | 31453 ft | 430 kts | 114° |
| 2026-05-07 15:13 | 12.82632 | -87.70341 | 30895 ft | 427 kts | 114° |
| 2026-05-07 15:13 | 12.81406 | -87.67586 | 30357 ft | 423 kts | 114° |
| 2026-05-07 15:14 | 12.80600 | -87.65778 | 29993 ft | 421 kts | 114° |
| 2026-05-07 15:14 | 12.79388 | -87.63057 | 29398 ft | 417 kts | 114° |
| 2026-05-07 15:14 | 12.78190 | -87.60373 | 28879 ft | 412 kts | 114° |
| 2026-05-07 15:14 | 12.77005 | -87.57719 | 28361 ft | 407 kts | 114° |
| 2026-05-07 15:15 | 12.75834 | -87.55099 | 27870 ft | 402 kts | 114° |
| 2026-05-07 15:15 | 12.74676 | -87.52504 | 27368 ft | 398 kts | 114° |
| 2026-05-07 15:15 | 12.73531 | -87.49940 | 26896 ft | 394 kts | 114° |
| 2026-05-07 15:15 | 12.72396 | -87.47403 | 26419 ft | 390 kts | 114° |
| 2026-05-07 15:16 | 12.71273 | -87.44892 | 25951 ft | 386 kts | 114° |
| 2026-05-07 15:16 | 12.70158 | -87.42401 | 25489 ft | 383 kts | 114° |
| 2026-05-07 15:16 | 12.69052 | -87.39933 | 25016 ft | 380 kts | 114° |
| 2026-05-07 15:16 | 12.67955 | -87.37476 | 24550 ft | 378 kts | 114° |
| 2026-05-07 15:17 | 12.66866 | -87.35031 | 24069 ft | 377 kts | 114° |
| 2026-05-07 15:17 | 12.65782 | -87.32599 | 23585 ft | 375 kts | 113° |
| 2026-05-07 15:17 | 12.64698 | -87.30175 | 23027 ft | 374 kts | 114° |
| 2026-05-07 15:17 | 12.63618 | -87.27762 | 22533 ft | 370 kts | 114° |
| 2026-05-07 15:18 | 12.62548 | -87.25370 | 22043 ft | 368 kts | 114° |
| 2026-05-07 15:18 | 12.61483 | -87.22997 | 21553 ft | 365 kts | 114° |
| 2026-05-07 15:18 | 12.60425 | -87.20640 | 21062 ft | 363 kts | 114° |
| 2026-05-07 15:18 | 12.59372 | -87.18295 | 20591 ft | 361 kts | 114° |
| 2026-05-07 15:19 | 12.58327 | -87.15967 | 20095 ft | 360 kts | 114° |
| 2026-05-07 15:19 | 12.57285 | -87.13642 | 19615 ft | 359 kts | 114° |
| 2026-05-07 15:19 | 12.56256 | -87.11344 | 19388 ft | 349 kts | 114° |
| 2026-05-07 15:19 | 12.55081 | -87.09218 | 19261 ft | 338 kts | 123° |
| 2026-05-07 15:20 | 12.53788 | -87.07253 | 19055 ft | 330 kts | 123° |
| 2026-05-07 15:20 | 12.52531 | -87.05339 | 18711 ft | 327 kts | 123° |
| 2026-05-07 15:20 | 12.51268 | -87.03411 | 18343 ft | 326 kts | 123° |
| 2026-05-07 15:20 | 12.50010 | -87.01490 | 17939 ft | 324 kts | 123° |
| 2026-05-07 15:21 | 12.48758 | -86.99579 | 17522 ft | 322 kts | 123° |
| 2026-05-07 15:21 | 12.47519 | -86.97688 | 16970 ft | 317 kts | 123° |
| 2026-05-07 15:21 | 12.46298 | -86.95821 | 16277 ft | 315 kts | 122° |
| 2026-05-07 15:21 | 12.45074 | -86.93945 | 15672 ft | 310 kts | 122° |
| 2026-05-07 15:22 | 12.43879 | -86.92118 | 15242 ft | 307 kts | 122° |
| 2026-05-07 15:22 | 12.42694 | -86.90310 | 14825 ft | 305 kts | 122° |
| 2026-05-07 15:22 | 12.41512 | -86.88508 | 14422 ft | 305 kts | 122° |
| 2026-05-07 15:22 | 12.40326 | -86.86701 | 14003 ft | 307 kts | 122° |
| 2026-05-07 15:23 | 12.39153 | -86.84914 | 13678 ft | 305 kts | 122° |
| 2026-05-07 15:23 | 12.37971 | -86.83110 | 13320 ft | 303 kts | 122° |
| 2026-05-07 15:23 | 12.36808 | -86.81332 | 12993 ft | 299 kts | 122° |
| 2026-05-07 15:23 | 12.35658 | -86.79573 | 12660 ft | 297 kts | 122° |
| 2026-05-07 15:24 | 12.34513 | -86.77828 | 12307 ft | 294 kts | 122° |
| 2026-05-07 15:24 | 12.33379 | -86.76098 | 11925 ft | 293 kts | 122° |
| 2026-05-07 15:24 | 12.32249 | -86.74374 | 11514 ft | 289 kts | 122° |
| 2026-05-07 15:24 | 12.31136 | -86.72676 | 10857 ft | 286 kts | 122° |
| 2026-05-07 15:25 | 12.30036 | -86.70997 | 10385 ft | 283 kts | 122° |
| 2026-05-07 15:25 | 12.28934 | -86.69334 | 9993 ft | 281 kts | 123° |
| 2026-05-07 15:25 | 12.27831 | -86.67694 | 9596 ft | 281 kts | 123° |
| 2026-05-07 15:25 | 12.26734 | -86.66072 | 9335 ft | 270 kts | 123° |
| 2026-05-07 15:26 | 12.25683 | -86.64522 | 8816 ft | 262 kts | 123° |
| 2026-05-07 15:26 | 12.24645 | -86.62986 | 8263 ft | 257 kts | 122° |
| 2026-05-07 15:26 | 12.23653 | -86.61518 | 7937 ft | 254 kts | 122° |
| 2026-05-07 15:26 | 12.22644 | -86.60020 | 7748 ft | 257 kts | 123° |
| 2026-05-07 15:27 | 12.21626 | -86.58508 | 7439 ft | 258 kts | 122° |
| 2026-05-07 15:27 | 12.20610 | -86.57001 | 7099 ft | 257 kts | 122° |
| 2026-05-07 15:27 | 12.19601 | -86.55502 | 6757 ft | 255 kts | 122° |
| 2026-05-07 15:27 | 12.18668 | -86.53978 | 6416 ft | 252 kts | 113° |
| 2026-05-07 15:28 | 12.18117 | -86.52296 | 6062 ft | 248 kts | 99° |
| 2026-05-07 15:28 | 12.17909 | -86.50556 | 5716 ft | 246 kts | 96° |
| 2026-05-07 15:28 | 12.17722 | -86.48817 | 5390 ft | 246 kts | 96° |
| 2026-05-07 15:28 | 12.17530 | -86.47084 | 5056 ft | 245 kts | 96° |
| 2026-05-07 15:29 | 12.17338 | -86.45361 | 4719 ft | 243 kts | 96° |
| 2026-05-07 15:29 | 12.17147 | -86.43654 | 4381 ft | 241 kts | 96° |
| 2026-05-07 15:29 | 12.16956 | -86.41951 | 4056 ft | 241 kts | 95° |
| 2026-05-07 15:29 | 12.16767 | -86.40256 | 3725 ft | 239 kts | 95° |
| 2026-05-07 15:30 | 12.16580 | -86.38575 | 3402 ft | 236 kts | 95° |
| 2026-05-07 15:30 | 12.16396 | -86.36932 | 3085 ft | 227 kts | 95° |
| 2026-05-07 15:30 | 12.16225 | -86.35383 | 2910 ft | 212 kts | 95° |
| 2026-05-07 15:30 | 12.16074 | -86.33965 | 2863 ft | 192 kts | 94° |
| 2026-05-07 15:31 | 12.15933 | -86.32632 | 2825 ft | 187 kts | 95° |
| 2026-05-07 15:31 | 12.15796 | -86.31320 | 2782 ft | 185 kts | 95° |
| 2026-05-07 15:31 | 12.15653 | -86.29994 | 2602 ft | 185 kts | 95° |
| 2026-05-07 15:31 | 12.15512 | -86.28746 | 2382 ft | 172 kts | 95° |
| 2026-05-07 15:32 | 12.15378 | -86.27575 | 2127 ft | 160 kts | 95° |
| 2026-05-07 15:32 | 12.15254 | -86.26505 | 1940 ft | 143 kts | 94° |
| 2026-05-07 15:32 | 12.15127 | -86.25483 | 1660 ft | 140 kts | 95° |
| 2026-05-07 15:32 | 12.14990 | -86.24517 | 1398 ft | 134 kts | 93° |
| 2026-05-07 15:33 | 12.14909 | -86.23578 | 1225 ft | 136 kts | 92° |
| 2026-05-07 15:33 | 12.14852 | -86.22611 | 1059 ft | 135 kts | 94° |
| 2026-05-07 15:33 | 12.14730 | -86.21671 | 909 ft | 136 kts | 96° |
| 2026-05-07 15:33 | 12.14606 | -86.20704 | 687 ft | 139 kts | 96° |
| 2026-05-07 15:34 | 12.14490 | -86.19745 | 541 ft | 136 kts | 94° |
| 2026-05-07 15:34 | 12.14379 | -86.18801 | 376 ft | 132 kts | 94° |
| 2026-05-07 15:34 | 12.14273 | -86.17871 | 222 ft | 131 kts | 92° |
| 2026-05-07 15:34 | 12.14185 | -86.17058 | 199 ft | 79 kts | 97° |
| 2026-05-07 15:35 | 12.14148 | -86.16753 | 199 ft | 27 kts | 95° |
| 2026-05-07 15:35 | 12.14165 | -86.16608 | 199 ft | 16 kts | 27° |
| 2026-05-07 15:35 | 12.14264 | -86.16653 | 206 ft | 17 kts | 306° |
| 2026-05-07 15:35 | 12.14287 | -86.16772 | 196 ft | 17 kts | 276° |
| 2026-05-07 15:36 | 12.14301 | -86.16894 | 196 ft | 17 kts | 277° |
| 2026-05-07 15:36 | 12.14314 | -86.17019 | 196 ft | 18 kts | 276° |
| 2026-05-07 15:36 | 12.14328 | -86.17136 | 196 ft | 9 kts | 279° |
| 2026-05-07 15:36 | 12.14359 | -86.17146 | 203 ft | 4 kts | 7° |
| 2026-05-07 15:37 | 12.14387 | -86.17145 | 198 ft | 1 kts | 0° |
| 2026-05-07 15:37 | 12.14393 | -86.17145 | 199 ft | 0 kts | 356° |